createdAt,value
2018-05-11T00:00:17.421Z,15.70
2018-05-11T00:01:19.922Z,15.70
2018-05-11T00:02:23.148Z,15.70
2018-05-11T00:03:26.385Z,15.70
2018-05-11T00:04:28.891Z,15.70
2018-05-11T00:05:31.372Z,15.70
2018-05-11T00:06:33.858Z,15.70
2018-05-11T00:07:37.819Z,15.60
2018-05-11T00:08:40.312Z,15.60
2018-05-11T00:09:43.594Z,15.60
2018-05-11T00:10:46.835Z,15.60
2018-05-11T00:11:49.300Z,15.60
2018-05-11T00:12:51.841Z,15.60
2018-05-11T00:13:54.363Z,15.60
2018-05-11T00:14:56.837Z,15.60
2018-05-11T00:16:00.082Z,15.50
2018-05-11T00:17:02.577Z,15.50
2018-05-11T00:18:05.044Z,15.50
2018-05-11T00:19:07.535Z,15.50
2018-05-11T00:20:10.020Z,15.50
2018-05-11T00:21:12.542Z,15.40
2018-05-11T00:22:15.164Z,15.40
2018-05-11T00:23:17.707Z,15.40
2018-05-11T00:24:20.177Z,15.40
2018-05-11T00:25:22.746Z,15.40
2018-05-11T00:26:25.237Z,15.30
2018-05-11T00:27:27.700Z,15.40
2018-05-11T00:28:30.199Z,15.30
2018-05-11T00:29:33.539Z,15.30
2018-05-11T00:30:36.791Z,15.30
2018-05-11T00:31:39.294Z,15.30
2018-05-11T00:32:41.773Z,15.30
2018-05-11T00:33:44.256Z,15.30
2018-05-11T00:34:47.510Z,15.30
2018-05-11T00:35:49.999Z,15.30
2018-05-11T00:36:52.489Z,15.30
2018-05-11T00:37:54.957Z,15.30
2018-05-11T00:38:58.224Z,15.30
2018-05-11T00:40:01.556Z,15.30
2018-05-11T00:41:03.981Z,15.30
2018-05-11T00:42:07.221Z,15.30
2018-05-11T00:43:10.495Z,15.30
2018-05-11T00:44:12.957Z,15.30
2018-05-11T00:45:15.417Z,15.30
2018-05-11T00:46:18.672Z,15.30
2018-05-11T00:47:21.207Z,15.40
2018-05-11T00:48:23.683Z,15.30
2018-05-11T00:49:26.167Z,15.40
2018-05-11T00:50:28.761Z,15.30
2018-05-11T00:51:32.042Z,15.40
2018-05-11T00:52:34.566Z,15.30
2018-05-11T00:53:37.072Z,15.30
2018-05-11T00:54:40.331Z,15.30
2018-05-11T00:55:49.715Z,15.30
2018-05-11T00:56:52.196Z,15.30
2018-05-11T00:57:55.525Z,15.20
2018-05-11T00:58:58.087Z,15.20
2018-05-11T01:00:00.556Z,15.20
2018-05-11T01:01:03.032Z,15.20
2018-05-11T01:02:06.287Z,15.20
2018-05-11T01:03:08.744Z,15.20
2018-05-11T01:04:12.153Z,15.20
2018-05-11T01:05:15.074Z,15.20
2018-05-11T01:06:18.767Z,15.10
2018-05-11T01:07:25.892Z,15.10
2018-05-11T01:08:31.239Z,15.10
2018-05-11T01:09:40.018Z,15.10
2018-05-11T01:10:48.099Z,15.10
2018-05-11T01:11:50.842Z,15.00
2018-05-11T01:12:53.630Z,15.00
2018-05-11T01:13:57.040Z,15.00
2018-05-11T01:14:59.790Z,15.00
2018-05-11T01:16:02.380Z,15.00
2018-05-11T01:17:04.880Z,15.00
2018-05-11T01:18:07.493Z,14.90
2018-05-11T01:19:12.348Z,14.90
2018-05-11T01:20:14.848Z,14.90
2018-05-11T01:21:17.328Z,14.90
2018-05-11T01:22:20.567Z,14.90
2018-05-11T01:23:23.055Z,14.90
2018-05-11T01:24:25.577Z,14.90
2018-05-11T01:25:28.046Z,14.90
2018-05-11T01:26:30.532Z,14.90
2018-05-11T01:27:33.046Z,14.80
2018-05-11T01:28:35.516Z,14.90
2018-05-11T01:29:38.771Z,14.80
2018-05-11T01:30:42.028Z,14.80
2018-05-11T01:31:44.544Z,14.80
2018-05-11T01:32:47.065Z,14.80
2018-05-11T01:33:49.580Z,14.80
2018-05-11T01:34:52.815Z,14.70
2018-05-11T01:35:56.133Z,14.70
2018-05-11T01:36:58.627Z,14.70
2018-05-11T01:38:01.115Z,14.70
2018-05-11T01:39:04.387Z,14.70
2018-05-11T01:40:06.876Z,14.70
2018-05-11T01:41:10.225Z,14.70
2018-05-11T01:42:13.503Z,14.70
2018-05-11T01:43:16.014Z,14.60
2018-05-11T01:44:18.477Z,14.60
2018-05-11T01:45:21.043Z,14.60
2018-05-11T01:46:24.292Z,14.60
2018-05-11T01:47:26.845Z,14.60
2018-05-11T01:48:29.360Z,14.60
2018-05-11T01:49:31.834Z,14.60
2018-05-11T01:50:34.470Z,14.60
2018-05-11T01:51:36.959Z,14.60
2018-05-11T01:52:39.427Z,14.60
2018-05-11T01:53:42.017Z,14.60
2018-05-11T01:54:44.496Z,14.50
2018-05-11T01:55:47.481Z,14.50
2018-05-11T01:56:50.000Z,14.50
2018-05-11T01:57:52.539Z,14.50
2018-05-11T01:58:55.004Z,14.50
2018-05-11T01:59:57.643Z,14.50
2018-05-11T02:01:00.163Z,14.50
2018-05-11T02:02:03.476Z,14.50
2018-05-11T02:03:05.956Z,14.50
2018-05-11T02:04:09.212Z,14.50
2018-05-11T02:05:11.687Z,14.50
2018-05-11T02:06:14.970Z,14.50
2018-05-11T02:07:18.233Z,14.50
2018-05-11T02:08:20.747Z,14.50
2018-05-11T02:09:23.261Z,14.50
2018-05-11T02:10:25.826Z,14.50
2018-05-11T02:11:28.338Z,14.50
2018-05-11T02:12:30.822Z,14.50
2018-05-11T02:13:33.716Z,14.60
2018-05-11T02:14:36.240Z,14.60
2018-05-11T02:15:38.739Z,14.50
2018-05-11T02:16:41.210Z,14.50
2018-05-11T02:17:43.815Z,14.50
2018-05-11T02:18:46.304Z,14.50
2018-05-11T02:19:48.832Z,14.50
2018-05-11T02:20:51.372Z,14.50
2018-05-11T02:21:53.852Z,14.50
2018-05-11T02:22:56.352Z,14.50
2018-05-11T02:23:58.843Z,14.50
2018-05-11T02:25:01.326Z,14.50
2018-05-11T02:26:03.879Z,14.50
2018-05-11T02:27:06.358Z,14.50
2018-05-11T02:28:08.922Z,14.40
2018-05-11T02:29:12.160Z,14.40
2018-05-11T02:30:15.404Z,14.40
2018-05-11T02:31:18.719Z,14.40
2018-05-11T02:32:21.273Z,14.40
2018-05-11T02:33:23.824Z,14.40
2018-05-11T02:34:26.328Z,14.40
2018-05-11T02:35:29.662Z,14.40
2018-05-11T02:36:32.139Z,14.40
2018-05-11T02:37:34.614Z,14.30
2018-05-11T02:38:37.155Z,14.30
2018-05-11T02:39:40.429Z,14.30
2018-05-11T02:40:42.909Z,14.30
2018-05-11T02:41:45.366Z,14.30
2018-05-11T02:42:47.828Z,14.20
2018-05-11T02:43:50.438Z,14.30
2018-05-11T02:44:52.914Z,14.20
2018-05-11T02:45:55.395Z,14.20
2018-05-11T02:46:57.940Z,14.30
2018-05-11T02:48:00.418Z,14.20
2018-05-11T02:49:02.947Z,14.20
2018-05-11T02:50:05.486Z,14.20
2018-05-11T02:51:08.007Z,14.20
2018-05-11T02:52:10.512Z,14.20
2018-05-11T02:53:13.022Z,14.20
2018-05-11T02:54:16.260Z,14.10
2018-05-11T02:55:19.513Z,14.10
2018-05-11T02:56:22.784Z,14.10
2018-05-11T02:57:25.285Z,14.10
2018-05-11T02:58:27.768Z,14.10
2018-05-11T02:59:30.368Z,14.10
2018-05-11T03:00:32.849Z,14.10
2018-05-11T03:01:36.154Z,14.10
2018-05-11T03:02:39.360Z,14.10
2018-05-11T03:03:41.865Z,14.10
2018-05-11T03:04:45.537Z,14.10
2018-05-11T03:05:48.085Z,14.10
2018-05-11T03:06:50.568Z,14.10
2018-05-11T03:07:53.827Z,14.10
2018-05-11T03:08:56.350Z,14.10
2018-05-11T03:09:58.851Z,14.10
2018-05-11T03:11:01.317Z,14.10
2018-05-11T03:12:03.788Z,14.20
2018-05-11T03:13:06.372Z,14.10
2018-05-11T03:14:08.931Z,14.20
2018-05-11T03:15:11.398Z,14.20
2018-05-11T03:16:14.644Z,14.20
2018-05-11T03:17:17.907Z,14.10
2018-05-11T03:18:20.468Z,14.10
2018-05-11T03:19:22.882Z,14.10
2018-05-11T03:20:25.364Z,14.10
2018-05-11T03:21:27.822Z,14.10
2018-05-11T03:22:30.419Z,14.10
2018-05-11T03:23:32.905Z,14.00
2018-05-11T03:24:35.404Z,14.00
2018-05-11T03:25:37.901Z,14.10
2018-05-11T03:26:40.356Z,14.10
2018-05-11T03:27:42.837Z,14.10
2018-05-11T03:28:45.421Z,14.00
2018-05-11T03:29:47.900Z,14.00
2018-05-11T03:30:50.371Z,14.00
2018-05-11T03:31:52.859Z,14.00
2018-05-11T03:32:55.382Z,14.00
2018-05-11T03:33:57.892Z,14.00
2018-05-11T03:35:01.123Z,14.00
2018-05-11T03:36:04.377Z,14.00
2018-05-11T03:37:07.729Z,14.00
2018-05-11T03:38:10.180Z,14.00
2018-05-11T03:39:12.664Z,14.00
2018-05-11T03:40:15.906Z,14.00
2018-05-11T03:41:19.153Z,14.00
2018-05-11T03:42:22.403Z,14.00
2018-05-11T03:43:24.872Z,14.00
2018-05-11T03:44:27.352Z,14.00
2018-05-11T03:45:29.817Z,14.00
2018-05-11T03:46:32.284Z,14.00
2018-05-11T03:47:35.533Z,14.00
2018-05-11T03:48:38.760Z,14.00
2018-05-11T03:49:41.320Z,14.00
2018-05-11T03:50:43.943Z,14.00
2018-05-11T03:51:46.557Z,13.90
2018-05-11T03:52:49.807Z,13.90
2018-05-11T03:53:52.283Z,13.80
2018-05-11T03:54:54.820Z,13.80
2018-05-11T03:55:57.284Z,13.80
2018-05-11T03:56:59.774Z,13.80
2018-05-11T03:58:02.343Z,13.80
2018-05-11T03:59:05.613Z,13.70
2018-05-11T04:00:08.086Z,13.70
2018-05-11T04:01:34.321Z,13.70
2018-05-11T04:02:48.553Z,13.70
2018-05-11T04:04:02.939Z,13.60
2018-05-11T04:05:17.452Z,13.60
2018-05-11T04:06:32.625Z,13.60
2018-05-11T04:07:47.032Z,13.60
2018-05-11T04:08:49.614Z,13.60
2018-05-11T04:09:52.136Z,13.60
2018-05-11T04:10:54.602Z,13.60
2018-05-11T04:11:57.208Z,13.60
2018-05-11T04:12:59.674Z,13.60
2018-05-11T04:14:02.132Z,13.60
2018-05-11T04:15:04.641Z,13.60
2018-05-11T04:16:07.872Z,13.60
2018-05-11T04:17:11.172Z,13.60
2018-05-11T04:18:13.671Z,13.60
2018-05-11T04:19:16.888Z,13.60
2018-05-11T04:20:20.272Z,13.70
2018-05-11T04:21:22.826Z,13.60
2018-05-11T04:22:25.308Z,13.60
2018-05-11T04:23:28.727Z,13.70
2018-05-11T04:24:31.202Z,13.70
2018-05-11T04:25:33.725Z,13.70
2018-05-11T04:26:36.184Z,13.70
2018-05-11T04:27:38.648Z,13.60
2018-05-11T04:28:41.112Z,13.60
2018-05-11T04:29:44.552Z,13.60
2018-05-11T04:30:47.044Z,13.60
2018-05-11T04:31:50.274Z,13.70
2018-05-11T04:32:52.740Z,13.60
2018-05-11T04:33:55.285Z,13.70
2018-05-11T04:34:57.766Z,13.60
2018-05-11T04:36:00.235Z,13.60
2018-05-11T04:37:02.758Z,13.60
2018-05-11T04:38:05.219Z,13.60
2018-05-11T04:39:08.439Z,13.60
2018-05-11T04:40:10.960Z,13.60
2018-05-11T04:41:13.420Z,13.60
2018-05-11T04:42:16.715Z,13.60
2018-05-11T04:43:19.189Z,13.60
2018-05-11T04:44:22.425Z,13.60
2018-05-11T04:45:25.845Z,13.60
2018-05-11T04:46:28.356Z,13.60
2018-05-11T04:47:30.816Z,13.70
2018-05-11T04:48:34.920Z,13.70
2018-05-11T04:49:37.382Z,13.70
2018-05-11T04:50:39.910Z,13.70
2018-05-11T04:51:42.413Z,13.70
2018-05-11T04:52:44.885Z,13.70
2018-05-11T04:53:47.453Z,13.80
2018-05-11T04:54:50.060Z,13.80
2018-05-11T04:55:52.541Z,13.80
2018-05-11T04:56:55.420Z,13.80
2018-05-11T04:57:57.896Z,13.70
2018-05-11T04:59:00.359Z,13.70
2018-05-11T05:00:02.844Z,13.70
2018-05-11T05:01:05.307Z,13.70
2018-05-11T05:02:07.819Z,13.70
2018-05-11T05:03:11.059Z,13.70
2018-05-11T05:04:14.383Z,13.80
2018-05-11T05:05:16.861Z,13.70
2018-05-11T05:06:19.344Z,13.80
2018-05-11T05:07:21.877Z,13.80
2018-05-11T05:08:25.117Z,13.90
2018-05-11T05:09:28.367Z,13.90
2018-05-11T05:10:31.674Z,13.90
2018-05-11T05:11:34.149Z,13.90
2018-05-11T05:12:37.490Z,13.90
2018-05-11T05:13:40.836Z,13.90
2018-05-11T05:14:44.105Z,13.90
2018-05-11T05:15:46.584Z,13.90
2018-05-11T05:16:49.409Z,13.90
2018-05-11T05:17:51.911Z,13.90
2018-05-11T05:18:54.384Z,13.90
2018-05-11T05:19:57.652Z,13.90
2018-05-11T05:21:00.139Z,13.90
2018-05-11T05:22:02.679Z,13.90
2018-05-11T05:23:05.987Z,13.90
2018-05-11T05:24:08.781Z,13.90
2018-05-11T05:25:11.293Z,13.90
2018-05-11T05:26:13.865Z,13.80
2018-05-11T05:27:16.339Z,13.80
2018-05-11T05:28:18.797Z,13.80
2018-05-11T05:29:21.279Z,13.80
2018-05-11T05:30:24.540Z,13.90
2018-05-11T05:31:27.019Z,13.80
2018-05-11T05:32:29.588Z,13.90
2018-05-11T05:33:32.124Z,13.90
2018-05-11T05:34:34.611Z,13.90
2018-05-11T05:35:37.085Z,13.90
2018-05-11T05:36:39.584Z,13.90
2018-05-11T05:37:42.085Z,13.90
2018-05-11T05:38:44.581Z,13.90
2018-05-11T05:39:47.060Z,13.90
2018-05-11T05:40:49.598Z,13.90
2018-05-11T05:41:52.076Z,13.90
2018-05-11T05:42:54.539Z,13.90
2018-05-11T05:43:57.375Z,13.90
2018-05-11T05:44:59.842Z,13.90
2018-05-11T05:46:02.353Z,14.00
2018-05-11T05:47:04.843Z,13.90
2018-05-11T05:48:08.175Z,13.90
2018-05-11T05:49:11.508Z,14.00
2018-05-11T05:50:13.993Z,13.90
2018-05-11T05:51:16.463Z,14.00
2018-05-11T05:52:19.699Z,14.10
2018-05-11T05:53:22.199Z,14.10
2018-05-11T05:54:25.888Z,14.10
2018-05-11T05:55:29.124Z,14.20
2018-05-11T05:56:31.622Z,14.10
2018-05-11T05:57:34.185Z,14.20
2018-05-11T05:58:37.446Z,14.20
2018-05-11T05:59:40.783Z,14.30
2018-05-11T06:00:44.037Z,14.30
2018-05-11T06:01:46.565Z,14.30
2018-05-11T06:02:49.095Z,14.40
2018-05-11T06:03:52.123Z,14.40
2018-05-11T06:04:54.622Z,14.40
2018-05-11T06:05:57.862Z,14.30
2018-05-11T06:07:01.119Z,14.30
2018-05-11T06:08:04.356Z,14.30
2018-05-11T06:09:07.616Z,14.30
2018-05-11T06:10:10.097Z,14.30
2018-05-11T06:11:12.947Z,14.30
2018-05-11T06:12:15.456Z,14.30
2018-05-11T06:13:17.972Z,14.30
2018-05-11T06:14:20.553Z,14.40
2018-05-11T06:15:23.029Z,14.30
2018-05-11T06:16:25.546Z,14.30
2018-05-11T06:17:28.560Z,14.30
2018-05-11T06:18:31.067Z,14.30
2018-05-11T06:19:33.598Z,14.30
2018-05-11T06:20:36.066Z,14.40
2018-05-11T06:21:38.560Z,14.40
2018-05-11T06:22:41.034Z,14.30
2018-05-11T06:23:44.270Z,14.30
2018-05-11T06:24:46.740Z,14.30
2018-05-11T06:25:49.989Z,14.30
2018-05-11T06:26:52.464Z,14.30
2018-05-11T06:27:55.028Z,14.30
2018-05-11T06:28:57.483Z,14.30
2018-05-11T06:29:59.961Z,14.40
2018-05-11T06:31:03.231Z,14.40
2018-05-11T06:32:05.696Z,14.30
2018-05-11T06:33:08.168Z,14.30
2018-05-11T06:34:10.633Z,14.40
2018-05-11T06:35:13.111Z,14.40
2018-05-11T06:36:16.448Z,14.40
2018-05-11T06:37:19.743Z,14.40
2018-05-11T06:38:22.200Z,14.30
2018-05-11T06:39:25.653Z,14.40
2018-05-11T06:40:29.253Z,14.50
2018-05-11T06:41:32.487Z,14.50
2018-05-11T06:42:35.014Z,14.40
2018-05-11T06:43:37.515Z,14.40
2018-05-11T06:44:40.807Z,14.30
2018-05-11T06:45:43.284Z,14.30
2018-05-11T06:46:46.515Z,14.30
2018-05-11T06:47:49.750Z,14.20
2018-05-11T06:48:53.066Z,14.20
2018-05-11T06:49:55.586Z,14.20
2018-05-11T06:50:58.116Z,14.20
2018-05-11T06:52:00.607Z,14.20
2018-05-11T06:53:03.071Z,14.20
2018-05-11T06:54:05.664Z,14.20
2018-05-11T06:55:08.159Z,14.20
2018-05-11T06:56:11.472Z,14.20
2018-05-11T06:57:14.353Z,14.20
2018-05-11T06:58:16.832Z,14.20
2018-05-11T06:59:19.285Z,14.30
2018-05-11T07:00:22.535Z,14.20
2018-05-11T07:01:25.173Z,14.20
2018-05-11T07:02:27.645Z,14.20
2018-05-11T07:03:30.116Z,14.20
2018-05-11T07:04:32.610Z,14.20
2018-05-11T07:05:35.099Z,14.10
2018-05-11T07:06:37.571Z,14.10
2018-05-11T07:07:40.880Z,14.10
2018-05-11T07:08:44.086Z,14.10
2018-05-11T07:09:46.603Z,14.10
2018-05-11T07:10:49.118Z,14.20
2018-05-11T07:11:51.694Z,14.20
2018-05-11T07:12:54.176Z,14.20
2018-05-11T07:13:56.702Z,14.30
2018-05-11T07:14:59.245Z,14.30
2018-05-11T07:16:01.735Z,14.30
2018-05-11T07:17:05.044Z,14.40
2018-05-11T07:18:08.298Z,14.40
2018-05-11T07:19:10.772Z,14.40
2018-05-11T07:20:13.283Z,14.40
2018-05-11T07:21:16.541Z,14.50
2018-05-11T07:22:19.049Z,14.50
2018-05-11T07:23:22.310Z,14.50
2018-05-11T07:24:24.780Z,14.50
2018-05-11T07:25:27.261Z,14.40
2018-05-11T07:26:29.732Z,14.50
2018-05-11T07:27:32.926Z,14.50
2018-05-11T07:28:35.434Z,14.50
2018-05-11T07:29:38.071Z,14.60
2018-05-11T07:30:40.538Z,14.60
2018-05-11T07:31:43.030Z,14.60
2018-05-11T07:32:45.498Z,14.70
2018-05-11T07:33:47.967Z,14.70
2018-05-11T07:34:50.468Z,14.70
2018-05-11T07:35:53.672Z,14.80
2018-05-11T07:36:56.274Z,14.80
2018-05-11T07:37:58.765Z,14.80
2018-05-11T07:39:01.269Z,14.80
2018-05-11T07:40:03.777Z,14.70
2018-05-11T07:41:06.301Z,14.70
2018-05-11T07:42:08.851Z,14.80
2018-05-11T07:43:11.441Z,14.90
2018-05-11T07:44:13.800Z,14.90
2018-05-11T07:45:16.287Z,14.90
2018-05-11T07:46:18.830Z,15.00
2018-05-11T07:47:21.333Z,14.90
2018-05-11T07:48:23.817Z,14.90
2018-05-11T07:49:26.276Z,14.90
2018-05-11T07:50:28.837Z,14.90
2018-05-11T07:51:31.419Z,14.90
2018-05-11T07:52:33.864Z,14.90
2018-05-11T07:53:36.330Z,14.90
2018-05-11T07:54:38.825Z,14.90
2018-05-11T07:55:41.314Z,14.90
2018-05-11T07:56:44.567Z,14.90
2018-05-11T07:57:47.095Z,14.90
2018-05-11T07:58:49.575Z,14.90
2018-05-11T07:59:52.152Z,14.90
2018-05-11T08:00:54.757Z,14.90
2018-05-11T08:01:58.015Z,15.00
2018-05-11T08:03:00.786Z,15.00
2018-05-11T08:04:03.300Z,15.00
2018-05-11T08:05:05.760Z,15.10
2018-05-11T08:06:08.331Z,15.10
2018-05-11T08:07:10.831Z,15.10
2018-05-11T08:08:13.397Z,15.20
2018-05-11T08:09:15.863Z,15.20
2018-05-11T08:10:18.411Z,15.30
2018-05-11T08:11:21.670Z,15.20
2018-05-11T08:12:24.162Z,15.20
2018-05-11T08:13:26.655Z,15.30
2018-05-11T08:14:29.231Z,15.30
2018-05-11T08:15:31.678Z,15.30
2018-05-11T08:16:34.144Z,15.40
2018-05-11T08:17:36.681Z,15.30
2018-05-11T08:18:39.160Z,15.20
2018-05-11T08:19:41.688Z,15.30
2018-05-11T08:20:44.180Z,15.30
2018-05-11T08:21:47.435Z,15.30
2018-05-11T08:22:49.927Z,15.30
2018-05-11T08:23:52.417Z,15.30
2018-05-11T08:24:54.891Z,15.20
2018-05-11T08:25:57.415Z,15.30
2018-05-11T08:27:00.756Z,15.30
2018-05-11T08:28:03.973Z,15.40
2018-05-11T08:29:07.563Z,15.40
2018-05-11T08:30:10.818Z,15.50
2018-05-11T08:31:14.533Z,15.50
2018-05-11T08:32:17.031Z,15.50
2018-05-11T08:33:19.516Z,15.50
2018-05-11T08:34:22.789Z,15.60
2018-05-11T08:35:25.268Z,15.50
2018-05-11T08:36:28.533Z,15.60
2018-05-11T08:37:31.236Z,15.60
2018-05-11T08:38:33.715Z,15.60
2018-05-11T08:39:36.194Z,15.70
2018-05-11T08:40:39.464Z,15.70
2018-05-11T08:41:41.938Z,15.70
2018-05-11T08:42:44.432Z,15.70
2018-05-11T08:43:46.898Z,15.80
2018-05-11T08:44:49.385Z,15.80
2018-05-11T08:45:52.001Z,15.80
2018-05-11T08:46:54.499Z,15.80
2018-05-11T08:47:57.794Z,15.90
2018-05-11T08:49:00.251Z,15.90
2018-05-11T08:50:03.674Z,15.90
2018-05-11T08:51:06.160Z,15.90
2018-05-11T08:52:08.671Z,15.90
2018-05-11T08:53:11.196Z,16.00
2018-05-11T08:54:14.458Z,16.00
2018-05-11T08:55:16.954Z,16.00
2018-05-11T08:56:20.212Z,16.00
2018-05-11T08:57:22.786Z,16.00
2018-05-11T08:58:25.270Z,16.10
2018-05-11T08:59:27.782Z,16.10
2018-05-11T09:00:30.318Z,16.10
2018-05-11T09:01:32.846Z,16.20
2018-05-11T09:02:35.353Z,16.20
2018-05-11T09:03:40.727Z,16.20
2018-05-11T09:04:44.057Z,16.20
2018-05-11T09:05:46.611Z,16.20
2018-05-11T09:06:49.862Z,16.10
2018-05-11T09:07:53.168Z,16.10
2018-05-11T09:08:55.799Z,16.10
2018-05-11T09:09:58.308Z,16.20
2018-05-11T09:11:00.842Z,16.30
2018-05-11T09:12:03.356Z,16.30
2018-05-11T09:13:05.877Z,16.40
2018-05-11T09:14:08.411Z,16.40
2018-05-11T09:15:10.908Z,16.50
2018-05-11T09:16:13.640Z,16.50
2018-05-11T09:17:16.154Z,16.50
2018-05-11T09:18:18.647Z,16.50
2018-05-11T09:19:21.138Z,16.40
2018-05-11T09:20:24.229Z,16.40
2018-05-11T09:21:27.494Z,16.40
2018-05-11T09:22:30.033Z,16.40
2018-05-11T09:23:32.526Z,16.40
2018-05-11T09:24:35.863Z,16.40
2018-05-11T09:25:39.091Z,16.40
2018-05-11T09:26:42.359Z,16.40
2018-05-11T09:27:44.839Z,16.40
2018-05-11T09:28:47.313Z,16.40
2018-05-11T09:29:49.811Z,16.50
2018-05-11T09:30:52.339Z,16.50
2018-05-11T09:31:55.742Z,16.70
2018-05-11T09:32:58.269Z,16.70
2018-05-11T09:34:00.741Z,16.70
2018-05-11T09:35:04.010Z,16.80
2018-05-11T09:36:06.494Z,16.80
2018-05-11T09:37:09.782Z,16.90
2018-05-11T09:38:12.344Z,16.90
2018-05-11T09:39:14.810Z,17.00
2018-05-11T09:40:18.298Z,17.10
2018-05-11T09:41:20.803Z,17.10
2018-05-11T09:42:23.391Z,17.10
2018-05-11T09:43:25.935Z,17.10
2018-05-11T09:44:29.171Z,17.10
2018-05-11T09:45:32.438Z,17.00
2018-05-11T09:46:34.997Z,17.00
2018-05-11T09:47:37.506Z,17.00
2018-05-11T09:48:40.030Z,17.00
2018-05-11T09:49:42.537Z,17.10
2018-05-11T09:50:45.052Z,17.10
2018-05-11T09:51:48.346Z,17.20
2018-05-11T09:52:50.910Z,17.10
2018-05-11T09:53:54.180Z,17.20
2018-05-11T09:54:56.663Z,17.20
2018-05-11T09:55:59.937Z,17.10
2018-05-11T09:57:03.161Z,17.10
2018-05-11T09:58:05.655Z,17.10
2018-05-11T09:59:08.140Z,17.10
2018-05-11T10:00:10.609Z,17.10
2018-05-11T10:01:13.114Z,17.10
2018-05-11T10:02:16.215Z,17.00
2018-05-11T10:03:19.450Z,17.00
2018-05-11T10:04:22.717Z,17.00
2018-05-11T10:05:25.201Z,17.00
2018-05-11T10:06:27.904Z,17.00
2018-05-11T10:07:30.450Z,17.10
2018-05-11T10:08:32.917Z,17.20
2018-05-11T10:09:35.456Z,17.30
2018-05-11T10:10:37.923Z,17.40
2018-05-11T10:11:40.386Z,17.50
2018-05-11T10:12:43.669Z,17.60
2018-05-11T10:13:46.246Z,17.60
2018-05-11T10:14:48.696Z,17.60
2018-05-11T10:15:51.164Z,17.60
2018-05-11T10:16:53.629Z,17.60
2018-05-11T10:17:56.853Z,17.60
2018-05-11T10:19:00.119Z,17.60
2018-05-11T10:20:03.379Z,17.70
2018-05-11T10:21:05.913Z,17.70
2018-05-11T10:22:08.431Z,17.80
2018-05-11T10:23:10.893Z,17.80
2018-05-11T10:24:13.460Z,17.90
2018-05-11T10:25:16.715Z,18.00
2018-05-11T10:26:19.216Z,17.90
2018-05-11T10:27:22.465Z,18.00
2018-05-11T10:28:25.689Z,18.00
2018-05-11T10:29:28.202Z,18.00
2018-05-11T10:30:30.681Z,18.00
2018-05-11T10:31:33.177Z,17.90
2018-05-11T10:32:36.446Z,18.00
2018-05-11T10:33:38.916Z,18.00
2018-05-11T10:34:41.409Z,18.00
2018-05-11T10:35:43.936Z,17.90
2018-05-11T10:36:46.439Z,17.80
2018-05-11T10:37:48.963Z,17.80
2018-05-11T10:38:51.464Z,17.70
2018-05-11T10:39:54.039Z,17.60
2018-05-11T10:40:56.517Z,17.60
2018-05-11T10:41:58.999Z,17.60
2018-05-11T10:43:01.571Z,17.60
2018-05-11T10:44:04.149Z,17.60
2018-05-11T10:45:06.638Z,17.60
2018-05-11T10:46:09.897Z,17.60
2018-05-11T10:47:12.396Z,17.60
2018-05-11T10:48:15.652Z,17.70
2018-05-11T10:49:18.161Z,17.70
2018-05-11T10:50:20.766Z,17.60
2018-05-11T10:51:23.227Z,17.70
2018-05-11T10:52:26.536Z,17.60
2018-05-11T10:53:29.808Z,17.60
2018-05-11T10:54:33.089Z,17.60
2018-05-11T10:55:35.620Z,17.50
2018-05-11T10:56:38.107Z,17.50
2018-05-11T10:57:41.358Z,17.50
2018-05-11T10:58:44.624Z,17.50
2018-05-11T10:59:47.097Z,17.50
2018-05-11T11:00:49.665Z,17.50
2018-05-11T11:01:52.229Z,17.60
2018-05-11T11:02:54.687Z,17.60
2018-05-11T11:03:57.239Z,17.60
2018-05-11T11:04:59.748Z,17.70
2018-05-11T11:06:02.984Z,17.70
2018-05-11T11:07:05.504Z,17.70
2018-05-11T11:08:08.731Z,17.80
2018-05-11T11:09:11.250Z,17.80
2018-05-11T11:10:13.862Z,17.80
2018-05-11T11:11:17.191Z,17.80
2018-05-11T11:12:19.661Z,17.80
2018-05-11T11:13:22.136Z,17.70
2018-05-11T11:14:24.656Z,17.70
2018-05-11T11:15:27.186Z,17.70
2018-05-11T11:16:29.679Z,17.80
2018-05-11T11:17:32.195Z,17.70
2018-05-11T11:18:35.468Z,17.50
2018-05-11T11:19:38.092Z,17.50
2018-05-11T11:20:40.635Z,17.50
2018-05-11T11:21:43.125Z,17.40
2018-05-11T11:22:45.663Z,17.30
2018-05-11T11:23:48.148Z,17.30
2018-05-11T11:24:50.696Z,17.30
2018-05-11T11:25:54.027Z,17.30
2018-05-11T11:26:56.469Z,17.30
2018-05-11T11:27:59.000Z,17.30
2018-05-11T11:29:02.241Z,17.20
2018-05-11T11:30:05.630Z,17.20
2018-05-11T11:31:08.156Z,17.20
2018-05-11T11:32:10.720Z,17.20
2018-05-11T11:33:13.884Z,17.10
2018-05-11T11:34:17.297Z,17.00
2018-05-11T11:35:19.845Z,17.00
2018-05-11T11:36:23.219Z,17.00
2018-05-11T11:37:25.747Z,17.00
2018-05-11T11:38:28.253Z,17.00
2018-05-11T11:39:31.510Z,17.00
2018-05-11T11:40:34.073Z,17.00
2018-05-11T11:41:37.361Z,16.90
2018-05-11T11:42:40.614Z,16.90
2018-05-11T11:43:43.844Z,16.90
2018-05-11T11:44:47.228Z,16.90
2018-05-11T11:45:49.712Z,16.90
2018-05-11T11:46:52.940Z,16.90
2018-05-11T11:47:55.432Z,16.90
2018-05-11T11:48:57.928Z,16.90
2018-05-11T11:50:00.410Z,16.90
2018-05-11T11:51:02.873Z,17.00
2018-05-11T11:52:05.380Z,17.00
2018-05-11T11:53:08.661Z,17.00
2018-05-11T11:54:11.141Z,17.00
2018-05-11T11:55:13.648Z,17.00
2018-05-11T11:56:16.122Z,16.90
2018-05-11T11:57:18.666Z,16.90
2018-05-11T11:58:21.144Z,16.90
2018-05-11T11:59:24.479Z,17.00
2018-05-11T12:00:26.979Z,17.00
2018-05-11T12:01:30.161Z,17.00
2018-05-11T12:02:33.398Z,17.10
2018-05-11T12:03:36.712Z,17.20
2018-05-11T12:04:39.219Z,17.20
2018-05-11T12:05:42.335Z,17.20
2018-05-11T12:06:44.833Z,17.20
2018-05-11T12:07:48.080Z,17.20
2018-05-11T12:08:51.335Z,17.30
2018-05-11T12:09:53.881Z,17.20
2018-05-11T12:10:56.420Z,17.40
2018-05-11T12:11:59.031Z,17.40
2018-05-11T12:13:01.532Z,17.40
2018-05-11T12:14:04.789Z,17.40
2018-05-11T12:15:07.293Z,17.40
2018-05-11T12:16:10.606Z,17.50
2018-05-11T12:17:13.232Z,17.50
2018-05-11T12:18:15.708Z,17.60
2018-05-11T12:19:19.092Z,17.70
2018-05-11T12:20:21.701Z,17.70
2018-05-11T12:21:24.262Z,17.80
2018-05-11T12:22:26.782Z,17.90
2018-05-11T12:23:29.416Z,17.90
2018-05-11T12:24:31.883Z,17.90
2018-05-11T12:25:34.518Z,17.90
2018-05-11T12:26:37.034Z,17.80
2018-05-11T12:27:40.258Z,17.70
2018-05-11T12:28:42.712Z,17.70
2018-05-11T12:29:45.194Z,17.70
2018-05-11T12:30:47.785Z,17.80
2018-05-11T12:31:50.262Z,17.70
2018-05-11T12:32:52.825Z,17.70
2018-05-11T12:33:55.392Z,17.60
2018-05-11T12:34:58.380Z,17.50
2018-05-11T12:36:00.921Z,17.50
2018-05-11T12:37:03.402Z,17.50
2018-05-11T12:38:05.873Z,17.60
2018-05-11T12:39:08.480Z,17.60
2018-05-11T12:40:10.945Z,17.70
2018-05-11T12:41:13.528Z,17.70
2018-05-11T12:42:17.565Z,17.80
2018-05-11T12:43:20.060Z,17.80
2018-05-11T12:44:22.593Z,17.90
2018-05-11T12:45:25.095Z,17.90
2018-05-11T12:46:27.575Z,18.00
2018-05-11T12:47:30.098Z,18.00
2018-05-11T12:48:34.121Z,18.00
2018-05-11T12:49:36.647Z,18.00
2018-05-11T12:50:39.136Z,17.90
2018-05-11T12:51:42.422Z,17.90
2018-05-11T12:52:44.917Z,17.90
2018-05-11T12:53:48.151Z,18.10
2018-05-11T12:56:00.980Z,18.10
2018-05-11T12:57:04.210Z,18.10
2018-05-11T12:58:06.718Z,18.10
2018-05-11T12:59:09.241Z,18.10
2018-05-11T13:00:12.339Z,17.90
2018-05-11T13:01:14.910Z,17.90
2018-05-11T13:02:18.203Z,17.90
2018-05-11T13:03:20.753Z,17.90
2018-05-11T13:04:23.311Z,18.00
2018-05-11T13:05:25.936Z,18.00
2018-05-11T13:06:29.266Z,17.90
2018-05-11T13:07:31.861Z,17.90
2018-05-11T13:08:34.422Z,17.90
2018-05-11T13:09:37.008Z,17.90
2018-05-11T13:10:39.499Z,17.90
2018-05-11T13:11:42.774Z,17.90
2018-05-11T13:12:45.803Z,17.90
2018-05-11T13:13:48.303Z,18.00
2018-05-11T13:14:51.547Z,17.90
2018-05-11T13:15:54.829Z,18.00
2018-05-11T13:16:57.303Z,17.90
2018-05-11T13:18:00.584Z,17.90
2018-05-11T13:19:03.078Z,17.90
2018-05-11T13:20:05.578Z,17.90
2018-05-11T13:21:08.062Z,17.90
2018-05-11T13:22:10.550Z,18.00
2018-05-11T13:23:13.025Z,18.00
2018-05-11T13:24:15.529Z,18.00
2018-05-11T13:25:18.009Z,18.00
2018-05-11T13:26:20.499Z,17.90
2018-05-11T13:27:22.974Z,17.90
2018-05-11T13:28:26.317Z,17.90
2018-05-11T13:29:29.604Z,17.90
2018-05-11T13:30:32.213Z,17.90